sensor_id;sensor_type;location;lat;lon;timestamp;P1;durP1;ratioP1;P2;durP2;ratioP2
22441;SDS011;11388;54.456;9.752;2023-05-29T00:00:20;11.75;;;2.58;;
22441;SDS011;11388;54.456;9.752;2023-05-29T00:02:46;13.02;;;2.60;;
22441;SDS011;11388;54.456;9.752;2023-05-29T00:05:12;12.25;;;2.75;;
22441;SDS011;11388;54.456;9.752;2023-05-29T00:07:39;15.07;;;2.92;;
22441;SDS011;11388;54.456;9.752;2023-05-29T00:10:06;11.82;;;3.00;;
22441;SDS011;11388;54.456;9.752;2023-05-29T00:12:33;13.48;;;2.50;;
22441;SDS011;11388;54.456;9.752;2023-05-29T00:14:59;10.40;;;2.25;;
22441;SDS011;11388;54.456;9.752;2023-05-29T00:17:24;12.75;;;2.75;;
22441;SDS011;11388;54.456;9.752;2023-05-29T00:19:50;11.70;;;2.42;;
22441;SDS011;11388;54.456;9.752;2023-05-29T00:22:16;12.25;;;3.00;;
22441;SDS011;11388;54.456;9.752;2023-05-29T00:24:43;11.55;;;2.70;;
22441;SDS011;11388;54.456;9.752;2023-05-29T00:27:09;13.52;;;2.85;;
22441;SDS011;11388;54.456;9.752;2023-05-29T00:29:35;12.02;;;3.00;;
22441;SDS011;11388;54.456;9.752;2023-05-29T00:32:02;15.45;;;3.20;;
22441;SDS011;11388;54.456;9.752;2023-05-29T00:34:29;10.00;;;2.50;;
22441;SDS011;11388;54.456;9.752;2023-05-29T00:36:55;15.75;;;3.17;;
22441;SDS011;11388;54.456;9.752;2023-05-29T00:39:21;13.30;;;2.97;;
22441;SDS011;11388;54.456;9.752;2023-05-29T00:41:47;14.57;;;2.75;;
22441;SDS011;11388;54.456;9.752;2023-05-29T00:44:19;11.50;;;2.97;;
22441;SDS011;11388;54.456;9.752;2023-05-29T00:46:46;16.05;;;3.13;;
22441;SDS011;11388;54.456;9.752;2023-05-29T00:49:13;19.35;;;3.30;;
22441;SDS011;11388;54.456;9.752;2023-05-29T00:51:39;12.77;;;3.10;;
22441;SDS011;11388;54.456;9.752;2023-05-29T00:54:08;15.02;;;3.20;;
22441;SDS011;11388;54.456;9.752;2023-05-29T00:56:41;14.38;;;2.88;;
22441;SDS011;11388;54.456;9.752;2023-05-29T00:59:13;12.43;;;2.78;;
22441;SDS011;11388;54.456;9.752;2023-05-29T01:01:39;14.35;;;2.83;;
22441;SDS011;11388;54.456;9.752;2023-05-29T01:04:06;11.68;;;3.17;;
22441;SDS011;11388;54.456;9.752;2023-05-29T01:06:35;12.60;;;2.85;;
22441;SDS011;11388;54.456;9.752;2023-05-29T01:09:01;13.18;;;2.58;;
22441;SDS011;11388;54.456;9.752;2023-05-29T01:11:45;12.50;;;3.10;;
22441;SDS011;11388;54.456;9.752;2023-05-29T01:14:51;13.10;;;2.85;;
22441;SDS011;11388;54.456;9.752;2023-05-29T01:17:51;11.32;;;2.88;;
22441;SDS011;11388;54.456;9.752;2023-05-29T01:20:35;12.15;;;2.50;;
22441;SDS011;11388;54.456;9.752;2023-05-29T01:25:47;15.20;;;3.08;;
22441;SDS011;11388;54.456;9.752;2023-05-29T01:31:49;13.98;;;2.67;;
22441;SDS011;11388;54.456;9.752;2023-05-29T01:34:16;13.23;;;2.40;;
22441;SDS011;11388;54.456;9.752;2023-05-29T01:39:50;15.07;;;3.00;;
22441;SDS011;11388;54.456;9.752;2023-05-29T01:42:16;10.80;;;2.50;;
22441;SDS011;11388;54.456;9.752;2023-05-29T01:44:42;17.42;;;2.88;;
22441;SDS011;11388;54.456;9.752;2023-05-29T01:47:08;11.90;;;2.88;;
22441;SDS011;11388;54.456;9.752;2023-05-29T01:49:34;12.20;;;2.85;;
22441;SDS011;11388;54.456;9.752;2023-05-29T01:52:02;11.95;;;2.80;;
22441;SDS011;11388;54.456;9.752;2023-05-29T01:54:29;12.55;;;2.95;;
22441;SDS011;11388;54.456;9.752;2023-05-29T01:56:55;14.75;;;2.83;;
22441;SDS011;11388;54.456;9.752;2023-05-29T01:59:21;16.85;;;3.42;;
22441;SDS011;11388;54.456;9.752;2023-05-29T02:01:47;15.52;;;2.65;;
22441;SDS011;11388;54.456;9.752;2023-05-29T02:04:16;12.25;;;2.58;;
22441;SDS011;11388;54.456;9.752;2023-05-29T02:06:51;15.43;;;3.40;;
22441;SDS011;11388;54.456;9.752;2023-05-29T02:09:17;14.90;;;3.33;;
22441;SDS011;11388;54.456;9.752;2023-05-29T02:11:43;13.80;;;3.00;;
22441;SDS011;11388;54.456;9.752;2023-05-29T02:14:10;11.65;;;2.95;;
22441;SDS011;11388;54.456;9.752;2023-05-29T02:16:36;13.60;;;3.03;;
22441;SDS011;11388;54.456;9.752;2023-05-29T02:19:06;15.25;;;2.80;;
22441;SDS011;11388;54.456;9.752;2023-05-29T02:21:32;14.65;;;2.70;;
22441;SDS011;11388;54.456;9.752;2023-05-29T02:23:58;14.93;;;3.08;;
22441;SDS011;11388;54.456;9.752;2023-05-29T02:26:24;14.00;;;2.72;;
22441;SDS011;11388;54.456;9.752;2023-05-29T02:28:50;11.80;;;2.97;;
22441;SDS011;11388;54.456;9.752;2023-05-29T02:31:16;14.75;;;3.15;;
22441;SDS011;11388;54.456;9.752;2023-05-29T02:33:42;13.30;;;2.75;;
22441;SDS011;11388;54.456;9.752;2023-05-29T02:36:10;12.10;;;2.92;;
22441;SDS011;11388;54.456;9.752;2023-05-29T02:38:37;13.30;;;3.47;;
22441;SDS011;11388;54.456;9.752;2023-05-29T02:41:02;12.68;;;2.90;;
22441;SDS011;11388;54.456;9.752;2023-05-29T02:43:28;13.63;;;2.88;;
22441;SDS011;11388;54.456;9.752;2023-05-29T02:45:54;16.77;;;3.00;;
22441;SDS011;11388;54.456;9.752;2023-05-29T02:48:20;13.00;;;3.05;;
22441;SDS011;11388;54.456;9.752;2023-05-29T02:50:47;17.70;;;3.30;;
22441;SDS011;11388;54.456;9.752;2023-05-29T02:53:12;11.60;;;2.80;;
22441;SDS011;11388;54.456;9.752;2023-05-29T02:55:38;14.30;;;2.72;;
22441;SDS011;11388;54.456;9.752;2023-05-29T02:58:04;16.10;;;3.28;;
22441;SDS011;11388;54.456;9.752;2023-05-29T03:00:30;13.82;;;3.30;;
22441;SDS011;11388;54.456;9.752;2023-05-29T03:02:56;12.50;;;3.15;;
22441;SDS011;11388;54.456;9.752;2023-05-29T03:05:22;16.15;;;3.33;;
22441;SDS011;11388;54.456;9.752;2023-05-29T03:07:50;16.20;;;3.08;;
22441;SDS011;11388;54.456;9.752;2023-05-29T03:10:16;13.40;;;3.38;;
22441;SDS011;11388;54.456;9.752;2023-05-29T03:12:42;16.95;;;3.60;;
22441;SDS011;11388;54.456;9.752;2023-05-29T03:15:09;12.05;;;2.70;;
22441;SDS011;11388;54.456;9.752;2023-05-29T03:17:35;13.65;;;3.05;;
22441;SDS011;11388;54.456;9.752;2023-05-29T03:20:04;11.60;;;2.97;;
22441;SDS011;11388;54.456;9.752;2023-05-29T03:22:34;13.15;;;2.80;;
22441;SDS011;11388;54.456;9.752;2023-05-29T03:25:03;14.98;;;3.10;;
22441;SDS011;11388;54.456;9.752;2023-05-29T03:27:34;10.95;;;3.08;;
22441;SDS011;11388;54.456;9.752;2023-05-29T03:30:05;15.45;;;3.33;;
22441;SDS011;11388;54.456;9.752;2023-05-29T03:32:34;13.90;;;2.70;;
22441;SDS011;11388;54.456;9.752;2023-05-29T03:35:03;12.02;;;3.13;;
22441;SDS011;11388;54.456;9.752;2023-05-29T03:37:32;13.00;;;2.92;;
22441;SDS011;11388;54.456;9.752;2023-05-29T03:39:58;12.32;;;3.38;;
22441;SDS011;11388;54.456;9.752;2023-05-29T03:42:24;13.45;;;3.10;;
22441;SDS011;11388;54.456;9.752;2023-05-29T03:44:50;14.80;;;3.10;;
22441;SDS011;11388;54.456;9.752;2023-05-29T03:47:18;17.95;;;3.55;;
22441;SDS011;11388;54.456;9.752;2023-05-29T03:49:46;16.45;;;3.25;;
22441;SDS011;11388;54.456;9.752;2023-05-29T03:52:12;15.57;;;3.22;;
22441;SDS011;11388;54.456;9.752;2023-05-29T03:54:38;18.58;;;3.53;;
22441;SDS011;11388;54.456;9.752;2023-05-29T03:57:06;13.45;;;3.05;;
22441;SDS011;11388;54.456;9.752;2023-05-29T03:59:32;15.05;;;3.30;;
22441;SDS011;11388;54.456;9.752;2023-05-29T04:02:00;17.77;;;3.30;;
22441;SDS011;11388;54.456;9.752;2023-05-29T04:04:29;15.07;;;3.20;;
22441;SDS011;11388;54.456;9.752;2023-05-29T04:06:55;15.60;;;3.90;;
22441;SDS011;11388;54.456;9.752;2023-05-29T04:09:21;18.40;;;3.63;;
22441;SDS011;11388;54.456;9.752;2023-05-29T04:11:47;16.63;;;3.25;;
22441;SDS011;11388;54.456;9.752;2023-05-29T04:14:13;17.50;;;3.33;;
22441;SDS011;11388;54.456;9.752;2023-05-29T04:16:38;13.82;;;3.20;;
22441;SDS011;11388;54.456;9.752;2023-05-29T04:19:04;17.15;;;3.60;;
22441;SDS011;11388;54.456;9.752;2023-05-29T04:21:30;19.60;;;3.58;;
22441;SDS011;11388;54.456;9.752;2023-05-29T04:23:57;14.38;;;3.25;;
22441;SDS011;11388;54.456;9.752;2023-05-29T04:26:23;14.05;;;3.40;;
22441;SDS011;11388;54.456;9.752;2023-05-29T04:28:54;16.05;;;3.75;;
22441;SDS011;11388;54.456;9.752;2023-05-29T04:31:24;14.55;;;3.47;;
22441;SDS011;11388;54.456;9.752;2023-05-29T04:33:58;16.30;;;3.63;;
22441;SDS011;11388;54.456;9.752;2023-05-29T04:36:25;19.88;;;3.63;;
22441;SDS011;11388;54.456;9.752;2023-05-29T04:38:53;16.67;;;3.45;;
22441;SDS011;11388;54.456;9.752;2023-05-29T04:41:19;13.82;;;3.20;;
22441;SDS011;11388;54.456;9.752;2023-05-29T04:43:49;15.88;;;3.45;;
22441;SDS011;11388;54.456;9.752;2023-05-29T04:46:16;15.70;;;3.55;;
22441;SDS011;11388;54.456;9.752;2023-05-29T04:48:42;16.02;;;3.88;;
22441;SDS011;11388;54.456;9.752;2023-05-29T04:51:09;15.93;;;4.00;;
22441;SDS011;11388;54.456;9.752;2023-05-29T04:56:08;13.30;;;3.60;;
22441;SDS011;11388;54.456;9.752;2023-05-29T04:58:34;16.95;;;3.50;;
22441;SDS011;11388;54.456;9.752;2023-05-29T05:01:00;17.00;;;3.47;;
22441;SDS011;11388;54.456;9.752;2023-05-29T05:05:59;15.23;;;3.40;;
22441;SDS011;11388;54.456;9.752;2023-05-29T05:08:25;12.82;;;3.28;;
22441;SDS011;11388;54.456;9.752;2023-05-29T05:10:51;18.63;;;3.72;;
22441;SDS011;11388;54.456;9.752;2023-05-29T05:13:16;16.13;;;3.50;;
22441;SDS011;11388;54.456;9.752;2023-05-29T05:15:42;16.30;;;3.78;;
22441;SDS011;11388;54.456;9.752;2023-05-29T05:18:07;18.40;;;3.28;;
22441;SDS011;11388;54.456;9.752;2023-05-29T05:20:33;15.55;;;3.40;;
22441;SDS011;11388;54.456;9.752;2023-05-29T05:22:59;14.05;;;3.40;;
22441;SDS011;11388;54.456;9.752;2023-05-29T05:25:26;17.95;;;3.42;;
22441;SDS011;11388;54.456;9.752;2023-05-29T05:27:51;17.13;;;3.72;;
22441;SDS011;11388;54.456;9.752;2023-05-29T05:30:17;13.52;;;3.25;;
22441;SDS011;11388;54.456;9.752;2023-05-29T05:32:43;19.77;;;3.65;;
22441;SDS011;11388;54.456;9.752;2023-05-29T05:35:08;18.85;;;4.13;;
22441;SDS011;11388;54.456;9.752;2023-05-29T05:37:36;18.15;;;3.80;;
22441;SDS011;11388;54.456;9.752;2023-05-29T05:40:02;15.88;;;3.72;;
22441;SDS011;11388;54.456;9.752;2023-05-29T05:42:31;15.90;;;3.28;;
22441;SDS011;11388;54.456;9.752;2023-05-29T05:44:57;19.23;;;4.25;;
22441;SDS011;11388;54.456;9.752;2023-05-29T05:47:23;15.57;;;3.70;;
22441;SDS011;11388;54.456;9.752;2023-05-29T05:49:49;17.70;;;3.70;;
22441;SDS011;11388;54.456;9.752;2023-05-29T05:52:16;20.23;;;4.35;;
22441;SDS011;11388;54.456;9.752;2023-05-29T05:54:45;15.32;;;3.70;;
22441;SDS011;11388;54.456;9.752;2023-05-29T05:57:11;16.25;;;3.92;;
22441;SDS011;11388;54.456;9.752;2023-05-29T05:59:37;18.00;;;4.10;;
22441;SDS011;11388;54.456;9.752;2023-05-29T06:02:03;15.70;;;3.58;;
22441;SDS011;11388;54.456;9.752;2023-05-29T06:04:29;15.38;;;3.63;;
22441;SDS011;11388;54.456;9.752;2023-05-29T06:06:54;18.02;;;3.70;;
22441;SDS011;11388;54.456;9.752;2023-05-29T06:09:20;23.35;;;4.45;;
22441;SDS011;11388;54.456;9.752;2023-05-29T06:11:46;21.90;;;4.05;;
22441;SDS011;11388;54.456;9.752;2023-05-29T06:14:15;18.85;;;3.88;;
22441;SDS011;11388;54.456;9.752;2023-05-29T06:16:40;21.50;;;4.30;;
22441;SDS011;11388;54.456;9.752;2023-05-29T06:19:06;17.90;;;4.70;;
22441;SDS011;11388;54.456;9.752;2023-05-29T06:21:32;15.70;;;4.03;;
22441;SDS011;11388;54.456;9.752;2023-05-29T06:23:57;17.92;;;4.10;;
22441;SDS011;11388;54.456;9.752;2023-05-29T06:26:23;16.85;;;3.63;;
22441;SDS011;11388;54.456;9.752;2023-05-29T06:28:52;15.50;;;3.95;;
22441;SDS011;11388;54.456;9.752;2023-05-29T06:31:18;18.42;;;4.68;;
22441;SDS011;11388;54.456;9.752;2023-05-29T06:33:52;14.63;;;3.88;;
22441;SDS011;11388;54.456;9.752;2023-05-29T06:36:18;23.52;;;4.25;;
22441;SDS011;11388;54.456;9.752;2023-05-29T06:38:47;19.95;;;4.43;;
22441;SDS011;11388;54.456;9.752;2023-05-29T06:41:16;20.00;;;3.92;;
22441;SDS011;11388;54.456;9.752;2023-05-29T06:43:42;17.80;;;4.18;;
22441;SDS011;11388;54.456;9.752;2023-05-29T06:46:08;19.30;;;4.03;;
22441;SDS011;11388;54.456;9.752;2023-05-29T06:48:34;15.40;;;3.25;;
22441;SDS011;11388;54.456;9.752;2023-05-29T06:51:00;15.82;;;3.83;;
22441;SDS011;11388;54.456;9.752;2023-05-29T06:53:37;16.63;;;3.50;;
22441;SDS011;11388;54.456;9.752;2023-05-29T06:56:04;17.98;;;3.90;;
22441;SDS011;11388;54.456;9.752;2023-05-29T06:58:30;17.60;;;4.15;;
22441;SDS011;11388;54.456;9.752;2023-05-29T07:04:19;15.68;;;3.58;;
22441;SDS011;11388;54.456;9.752;2023-05-29T07:42:00;9.82;;;2.70;;
22441;SDS011;11388;54.456;9.752;2023-05-29T07:44:27;9.32;;;2.67;;
22441;SDS011;11388;54.456;9.752;2023-05-29T07:46:55;13.60;;;3.58;;
22441;SDS011;11388;54.456;9.752;2023-05-29T07:49:21;14.93;;;3.13;;
22441;SDS011;11388;54.456;9.752;2023-05-29T07:51:46;16.48;;;3.30;;
22441;SDS011;11388;54.456;9.752;2023-05-29T07:54:12;11.13;;;2.95;;
22441;SDS011;11388;54.456;9.752;2023-05-29T07:56:38;13.65;;;2.88;;
22441;SDS011;11388;54.456;9.752;2023-05-29T07:59:05;12.20;;;3.05;;
22441;SDS011;11388;54.456;9.752;2023-05-29T08:01:32;13.30;;;3.05;;
22441;SDS011;11388;54.456;9.752;2023-05-29T08:03:58;11.60;;;2.78;;
22441;SDS011;11388;54.456;9.752;2023-05-29T08:06:24;13.85;;;3.05;;
22441;SDS011;11388;54.456;9.752;2023-05-29T08:08:50;11.52;;;3.10;;
22441;SDS011;11388;54.456;9.752;2023-05-29T08:11:17;11.35;;;3.00;;
22441;SDS011;11388;54.456;9.752;2023-05-29T08:13:43;11.27;;;2.80;;
22441;SDS011;11388;54.456;9.752;2023-05-29T08:16:09;9.80;;;2.55;;
22441;SDS011;11388;54.456;9.752;2023-05-29T08:18:41;10.85;;;2.38;;
22441;SDS011;11388;54.456;9.752;2023-05-29T08:21:06;11.60;;;2.88;;
